Time;durP1;ratioP1;P1;durP2;ratioP2;P2;SDS_P1;SDS_P2;PMS_P1;PMS_P2;Temp;Humidity;BMP_temperature;BMP_pressure;BME280_temperature;BME280_humidity;BME280_pressure;Samples;Min_cycle;Max_cycle;Signal;HPM_P1;HPM_P2
2021/05/26 00:01:17;;;;;;;3.93;2.50;;;;;;;14.51;74.11;100699.62;1735754;80;21343;-68
2021/05/26 00:03:44;;;;;;;4.23;2.80;;;;;;;14.52;74.29;100703.11;1734989;80;21360;-68
2021/05/26 00:06:11;;;;;;;5.60;2.70;;;;;;;14.53;74.42;100700.12;1739801;80;21931;-68
2021/05/26 00:08:38;;;;;;;4.50;2.90;;;;;;;14.54;74.47;100705.78;1737444;80;21439;-68
2021/05/26 00:11:11;;;;;;;3.87;2.60;;;;;;;14.54;74.48;100707.65;1738923;80;22702;-68
2021/05/26 00:13:44;;;;;;;5.57;2.80;;;;;;;14.55;74.65;100717.34;1739262;80;21355;-66
2021/05/26 00:16:12;;;;;;;;;;;;;;;14.56;74.83;100726.20;1742650;80;21370;-68
2021/05/26 00:18:40;;;;;;;3.77;2.80;;;;;;;14.54;74.95;100726.46;1733860;80;21084;-68
2021/05/26 00:21:09;;;;;;;3.90;2.80;;;;;;;14.51;75.13;100732.39;1734667;80;21280;-68
2021/05/26 00:23:37;;;;;;;5.50;3.10;;;;;;;14.50;75.27;100725.39;1735433;80;21235;-68
2021/05/26 00:26:03;;;;;;;7.20;2.70;;;;;;;14.50;75.38;100723.53;1739529;80;21954;-68
2021/05/26 00:28:31;;;;;;;4.90;2.70;;;;;;;14.51;75.46;100722.98;1730727;80;21303;-68
2021/05/26 00:31:00;;;;;;;3.77;2.73;;;;;;;14.52;75.51;100725.95;1731068;80;21248;-68
2021/05/26 00:33:27;;;;;;;5.13;2.80;;;;;;;14.51;75.51;100725.16;1701592;82;21328;-67
2021/05/26 00:35:54;;;;;;;4.47;2.73;;;;;;;14.51;75.55;100720.30;1735779;81;21350;-68
2021/05/26 00:38:21;;;;;;;6.27;3.17;;;;;;;14.45;75.66;100729.47;1738504;80;22635;-68
2021/05/26 00:40:48;;;;;;;4.60;2.93;;;;;;;14.41;75.86;100728.40;1740361;80;21302;-68
2021/05/26 00:43:17;;;;;;;5.00;3.00;;;;;;;14.34;76.10;100737.31;1739792;80;21935;-68
2021/05/26 00:45:46;;;;;;;7.40;3.17;;;;;;;14.23;76.39;100732.54;1740194;80;21335;-68
2021/05/26 00:48:13;;;;;;;5.83;2.77;;;;;;;14.19;76.54;100732.84;1737510;80;21499;-68
2021/05/26 00:50:40;;;;;;;4.30;2.80;;;;;;;14.10;76.72;100729.91;1739405;82;21382;-68
2021/05/26 00:53:09;;;;;;;4.20;2.70;;;;;;;14.06;76.91;100730.20;1738978;80;21626;-68
2021/05/26 00:55:36;;;;;;;3.90;3.00;;;;;;;14.01;77.13;100726.19;1748127;80;21357;-68
2021/05/26 00:58:05;;;;;;;4.67;2.83;;;;;;;13.93;77.36;100722.75;1736803;80;21248;-67
2021/05/26 01:00:33;;;;;;;4.23;2.80;;;;;;;13.84;77.74;100719.82;1730920;80;21383;-68
2021/05/26 01:03:05;;;;;;;5.50;2.90;;;;;;;13.79;78.08;100720.66;1744247;80;21202;-68
2021/05/26 01:05:32;;;;;;;5.23;3.03;;;;;;;13.77;78.38;100722.80;1738121;80;21803;-67
2021/05/26 01:07:58;;;;;;;6.23;3.30;;;;;;;13.80;78.58;100713.40;1737341;79;21859;-67
2021/05/26 01:10:27;;;;;;;4.80;3.20;;;;;;;13.80;78.76;100718.22;1735964;80;21294;-68
2021/05/26 01:12:56;;;;;;;5.40;3.08;;;;;;;13.79;78.90;100721.20;1726056;80;21306;-67
2021/05/26 01:15:23;;;;;;;6.20;3.17;;;;;;;13.74;79.21;100717.17;1738762;80;21117;-67
2021/05/26 01:17:52;;;;;;;5.60;3.20;;;;;;;13.68;79.49;100719.06;1734544;80;21330;-67
2021/05/26 01:20:27;;;;;;;6.23;3.40;;;;;;;13.60;79.88;100709.70;1741769;80;21432;-67
2021/05/26 01:22:54;;;;;;;5.77;3.40;;;;;;;13.54;80.21;100707.30;1739303;80;21413;-68
2021/05/26 01:25:21;;;;;;;5.47;3.50;;;;;;;13.53;80.50;100713.76;1743902;80;21305;-67
2021/05/26 01:27:48;;;;;;;4.97;3.37;;;;;;;13.56;80.68;100707.30;1725583;80;21322;-66
2021/05/26 01:30:16;;;;;;;6.47;3.50;;;;;;;13.61;80.78;100701.91;1737348;80;21762;-67
2021/05/26 01:32:46;;;;;;;5.67;3.70;;;;;;;13.59;80.83;100693.34;1744813;80;21720;-67
2021/05/26 01:35:16;;;;;;;6.95;4.22;;;;;;;13.58;81.01;100703.80;1739598;80;21876;-67
2021/05/26 01:37:44;;;;;;;6.63;3.83;;;;;;;13.59;81.15;100699.25;1722939;80;21117;-68
2021/05/26 01:40:14;;;;;;;4.83;3.60;;;;;;;13.60;81.25;100697.63;1746892;80;21086;-67
2021/05/26 01:42:41;;;;;;;4.97;3.50;;;;;;;13.62;81.33;100696.00;1721284;82;21724;-67
2021/05/26 01:45:10;;;;;;;6.73;3.70;;;;;;;13.59;81.43;100693.89;1739133;80;21447;-68
2021/05/26 01:47:37;;;;;;;5.67;4.13;;;;;;;13.61;81.51;100694.39;1736700;80;21387;-67
2021/05/26 01:50:19;;;;;;;5.27;4.00;;;;;;;13.64;81.57;100695.20;1738578;80;21340;-67
2021/05/26 01:52:37;;;;;;;5.10;3.83;;;;;;;13.66;81.63;100697.63;1737008;80;21762;-67
2021/05/26 01:55:06;;;;;;;5.97;3.67;;;;;;;13.70;81.66;100697.33;1741313;81;21338;-67
2021/05/26 01:57:33;;;;;;;5.80;4.00;;;;;;;13.72;81.65;100689.79;1729490;80;21872;-67
2021/05/26 02:00:05;;;;;;;4.20;3.67;;;;;;;13.75;81.65;100687.36;1736747;80;21276;-67
2021/05/26 02:02:34;;;;;;;4.75;3.50;;;;;;;13.76;81.67;100691.67;1738617;80;21334;-67
2021/05/26 02:05:01;;;;;;;4.87;3.97;;;;;;;13.78;81.73;100688.16;1742564;80;21219;-67
2021/05/26 02:07:30;;;;;;;5.37;4.00;;;;;;;13.80;81.79;100692.72;1738257;80;21468;-67
2021/05/26 02:09:58;;;;;;;5.57;3.83;;;;;;;13.80;81.80;100688.69;1727679;80;21764;-66
2021/05/26 02:12:32;;;;;;;5.93;3.90;;;;;;;13.82;81.88;100688.44;1725407;80;21460;-66
2021/05/26 02:14:57;;;;;;;6.20;3.90;;;;;;;13.81;81.93;100688.95;1726499;80;21202;-67
2021/05/26 02:17:24;;;;;;;6.87;3.87;;;;;;;13.79;82.07;100688.44;1738763;80;21150;-67
2021/05/26 02:19:53;;;;;;;6.00;3.60;;;;;;;13.78;82.21;100677.95;1736031;80;21320;-67
2021/05/26 02:22:21;;;;;;;6.93;4.10;;;;;;;13.78;82.33;100684.13;1735911;80;21468;-67
2021/05/26 02:24:49;;;;;;;5.83;3.77;;;;;;;13.76;82.52;100678.25;1725267;80;21248;-67
2021/05/26 02:27:16;;;;;;;8.20;4.33;;;;;;;13.77;82.56;100675.81;1741692;80;21238;-68
2021/05/26 02:29:44;;;;;;;6.80;4.17;;;;;;;13.78;82.64;100679.30;1736575;80;22318;-67
2021/05/26 02:32:12;;;;;;;6.80;3.87;;;;;;;13.79;82.67;100680.38;1747310;80;21104;-68
2021/05/26 02:34:43;;;;;;;5.30;3.90;;;;;;;13.87;82.67;100682.23;1729900;80;21478;-66
2021/05/26 02:37:10;;;;;;;6.03;3.97;;;;;;;13.94;82.61;100682.18;1741127;80;20964;-66
2021/05/26 02:39:39;;;;;;;4.60;3.77;;;;;;;14.02;82.63;100684.30;1737702;80;21451;-67
2021/05/26 02:42:05;;;;;;;6.70;4.30;;;;;;;14.15;82.52;100680.20;1740916;80;21342;-67
2021/05/26 02:44:33;;;;;;;5.77;3.87;;;;;;;14.26;82.38;100679.60;1737336;80;21932;-67
2021/05/26 02:46:59;;;;;;;4.37;3.23;;;;;;;14.37;82.26;100685.70;1741518;80;21346;-67
2021/05/26 02:49:27;;;;;;;5.33;3.73;;;;;;;14.48;82.14;100692.63;1742847;80;21299;-67
2021/05/26 02:51:56;;;;;;;4.33;3.57;;;;;;;14.58;82.03;100691.76;1733413;80;21383;-67
2021/05/26 02:54:22;;;;;;;3.90;3.20;;;;;;;14.70;81.92;100688.98;1742268;80;21327;-67
2021/05/26 02:56:49;;;;;;;7.20;3.30;;;;;;;14.83;81.72;100692.91;1742343;80;22509;-68
2021/05/26 02:59:32;;;;;;;4.63;2.90;;;;;;;14.94;81.46;100690.96;1677534;85;21501;-68
2021/05/26 03:02:01;;;;;;;5.10;3.20;;;;;;;15.05;81.26;100688.42;1711994;80;21286;-68
2021/05/26 03:04:35;;;;;;;4.20;3.27;;;;;;;15.17;81.08;100690.75;1741311;80;21408;-68
2021/05/26 03:07:02;;;;;;;4.63;3.40;;;;;;;15.31;80.97;100696.25;1741430;80;21313;-68
2021/05/26 03:09:29;;;;;;;5.37;2.97;;;;;;;15.44;80.82;100692.88;1751916;80;21916;-66
2021/05/26 03:11:57;;;;;;;4.83;3.00;;;;;;;15.81;80.11;100696.24;1717960;80;21443;-67
2021/05/26 03:14:27;;;;;;;5.90;3.00;;;;;;;15.81;80.11;100696.24;1739312;82;21980;-67
2021/05/26 03:16:55;;;;;;;4.97;3.07;;;;;;;16.00;80.09;100687.41;1729438;80;21576;-67
2021/05/26 03:19:23;;;;;;;4.33;3.00;;;;;;;16.36;79.23;100695.23;1724207;81;21855;-67
2021/05/26 03:21:53;;;;;;;4.97;2.77;;;;;;;16.36;79.23;100695.23;1726379;80;21741;-67
2021/05/26 03:24:39;;;;;;;4.90;2.80;;;;;;;16.53;78.71;100698.76;1702125;82;21806;-68
2021/05/26 03:27:07;;;;;;;5.63;2.90;;;;;;;16.90;77.61;100696.32;1737839;80;21730;-67
2021/05/26 03:29:33;;;;;;;4.60;2.60;;;;;;;16.90;77.61;100696.32;1735868;80;21761;-67
2021/05/26 03:32:00;;;;;;;4.50;2.80;;;;;;;17.04;76.74;100692.55;1736731;80;22315;-67
2021/05/26 03:34:28;;;;;;;5.73;2.90;;;;;;;17.17;76.02;100686.12;1716293;81;21791;-68
2021/05/26 03:36:57;;;;;;;3.70;2.40;;;;;;;17.26;75.17;100685.70;1739486;80;21678;-67
2021/05/26 03:39:23;;;;;;;4.30;2.40;;;;;;;17.31;74.71;100686.41;1730886;80;21626;-67
2021/05/26 03:41:51;;;;;;;3.80;2.00;;;;;;;17.40;74.34;100689.20;1741596;80;21611;-67
2021/05/26 03:44:20;;;;;;;4.77;2.80;;;;;;;17.35;74.16;100690.66;1701656;82;21145;-67
2021/05/26 03:46:47;;;;;;;3.73;2.43;;;;;;;17.33;74.04;100679.34;1737697;81;21026;-67
2021/05/26 03:49:16;;;;;;;3.80;2.50;;;;;;;17.39;74.10;100686.25;1737378;80;22198;-68
2021/05/26 03:51:43;;;;;;;3.73;2.27;;;;;;;17.53;74.03;100686.25;1743015;80;21488;-67
2021/05/26 03:54:13;;;;;;;4.60;2.60;;;;;;;17.65;73.76;100687.11;1737089;80;21049;-68
2021/05/26 03:56:42;;;;;;;3.67;2.40;;;;;;;17.73;73.36;100685.05;1742824;80;21212;-67
2021/05/26 03:59:11;;;;;;;4.97;2.60;;;;;;;17.78;72.97;100680.93;1742690;80;21027;-68
2021/05/26 04:01:40;;;;;;;4.63;2.70;;;;;;;17.75;72.73;100681.50;1742302;80;21160;-67
2021/05/26 04:04:06;;;;;;;3.87;2.60;;;;;;;17.72;72.87;100678.05;1735710;80;21069;-67
2021/05/26 04:06:35;;;;;;;4.20;2.47;;;;;;;17.72;72.94;100676.70;1740713;80;21041;-67
2021/05/26 04:09:03;;;;;;;4.47;2.40;;;;;;;17.80;72.92;100682.76;1743540;80;21092;-67
2021/05/26 04:11:30;;;;;;;3.77;2.47;;;;;;;17.89;72.89;100693.11;1737320;80;21021;-67
2021/05/26 04:14:03;;;;;;;4.70;2.17;;;;;;;18.05;72.78;100690.89;1688650;80;21077;-67
2021/05/26 04:16:32;;;;;;;4.20;2.40;;;;;;;18.21;72.62;100692.16;1721520;81;20986;-67
2021/05/26 04:19:01;;;;;;;4.23;2.47;;;;;;;18.37;72.26;100701.28;1696164;82;21644;-67
2021/05/26 04:21:30;;;;;;;4.93;2.43;;;;;;;18.52;71.94;100709.02;1693444;84;21093;-67
2021/05/26 04:23:58;;;;;;;4.10;2.50;;;;;;;18.66;71.28;100721.16;1740050;80;20990;-68
2021/05/26 04:26:25;;;;;;;4.93;2.20;;;;;;;18.77;70.60;100725.80;1740201;80;21083;-68
2021/05/26 04:28:53;;;;;;;3.50;2.20;;;;;;;18.83;70.04;100731.34;1741237;80;21058;-67
2021/05/26 04:31:20;;;;;;;3.93;2.33;;;;;;;18.86;69.24;100745.61;1743754;79;21105;-67
2021/05/26 04:33:48;;;;;;;3.50;2.20;;;;;;;18.86;69.01;100740.99;1727906;80;21200;-67
2021/05/26 04:36:15;;;;;;;5.73;2.50;;;;;;;18.93;68.88;100732.44;1720054;80;21060;-67
2021/05/26 04:38:43;;;;;;;5.50;2.50;;;;;;;19.04;68.54;100732.42;1742251;80;21091;-68
2021/05/26 04:41:10;;;;;;;4.43;2.20;;;;;;;19.12;67.81;100734.39;1739883;80;21600;-67
2021/05/26 04:43:38;;;;;;;3.50;2.30;;;;;;;19.20;67.59;100734.19;1736285;80;21671;-68
2021/05/26 04:46:06;;;;;;;4.63;2.30;;;;;;;19.30;67.51;100736.62;1744620;81;21057;-67
2021/05/26 04:48:33;;;;;;;4.07;2.53;;;;;;;19.43;67.18;100734.38;1756111;80;21037;-68
2021/05/26 04:51:01;;;;;;;5.80;2.57;;;;;;;19.54;66.66;100731.39;1745876;80;21144;-68
2021/05/26 04:53:29;;;;;;;3.57;2.47;;;;;;;19.61;66.34;100729.84;1709469;82;21136;-68
2021/05/26 04:55:55;;;;;;;4.20;2.33;;;;;;;19.66;65.87;100728.92;1737161;80;21045;-68
2021/05/26 04:58:22;;;;;;;3.93;2.50;;;;;;;19.67;65.48;100732.66;1743497;80;21080;-67
2021/05/26 05:00:49;;;;;;;3.93;2.40;;;;;;;19.67;65.25;100731.30;1744235;80;21068;-67
2021/05/26 05:03:15;;;;;;;3.87;2.47;;;;;;;19.67;64.98;100735.94;1735494;80;21621;-69
2021/05/26 05:05:43;;;;;;;5.60;2.77;;;;;;;19.67;64.79;100723.73;1728089;80;21639;-68
2021/05/26 05:08:10;;;;;;;3.43;2.53;;;;;;;19.67;65.00;100730.52;1742674;80;21176;-68
2021/05/26 05:10:38;;;;;;;5.10;2.53;;;;;;;19.70;64.89;100727.73;1741122;80;21117;-68
2021/05/26 05:13:05;;;;;;;4.73;2.37;;;;;;;19.75;64.98;100723.55;1737091;80;21068;-67
2021/05/26 05:15:32;;;;;;;4.13;2.40;;;;;;;19.80;64.95;100722.03;1739942;80;21055;-67
2021/05/26 05:18:01;;;;;;;3.83;2.60;;;;;;;19.86;65.04;100719.41;1739068;80;20990;-67
2021/05/26 05:20:28;;;;;;;4.20;2.50;;;;;;;19.87;64.68;100728.60;1740882;80;21057;-67
2021/05/26 05:22:55;;;;;;;5.17;2.73;;;;;;;19.87;64.36;100729.14;1738349;80;21080;-68
2021/05/26 05:25:23;;;;;;;3.50;2.43;;;;;;;19.83;63.88;100731.68;1731916;80;20997;-67
2021/05/26 05:27:50;;;;;;;3.60;2.23;;;;;;;19.79;63.87;100746.19;1736326;80;21248;-68
2021/05/26 05:30:18;;;;;;;4.03;2.60;;;;;;;19.74;63.89;100741.69;1731919;80;21215;-68
2021/05/26 05:32:45;;;;;;;3.70;2.50;;;;;;;19.72;63.96;100745.85;1739228;80;21076;-67
2021/05/26 05:35:13;;;;;;;5.20;2.40;;;;;;;19.67;64.10;100744.06;1733277;80;20994;-68
2021/05/26 05:37:40;;;;;;;3.17;2.40;;;;;;;19.64;64.07;100758.23;1699387;82;20986;-67
2021/05/26 05:40:07;;;;;;;3.83;2.37;;;;;;;19.56;64.46;100763.84;1709210;81;21071;-67
2021/05/26 05:42:34;;;;;;;3.63;2.50;;;;;;;19.49;64.73;100754.57;1670324;83;21101;-67
2021/05/26 05:45:01;;;;;;;3.90;2.40;;;;;;;19.54;64.94;100753.86;1683888;84;21086;-67
2021/05/26 05:47:28;;;;;;;4.27;2.43;;;;;;;19.60;64.80;100754.53;1673645;83;21538;-68
2021/05/26 05:49:55;;;;;;;5.77;2.63;;;;;;;19.63;64.69;100751.20;1678886;83;21083;-68
2021/05/26 05:52:22;;;;;;;4.57;2.43;;;;;;;19.62;64.79;100757.73;1667293;83;21055;-68
2021/05/26 05:54:50;;;;;;;7.20;2.60;;;;;;;19.62;64.69;100748.25;1677708;83;21106;-68
2021/05/26 05:57:17;;;;;;;3.80;2.53;;;;;;;19.68;64.42;100744.33;1655725;84;21122;-69
2021/05/26 05:59:44;;;;;;;2.93;2.23;;;;;;;19.79;64.48;100743.48;1675154;84;21562;-67
2021/05/26 06:02:11;;;;;;;4.13;2.53;;;;;;;19.89;64.36;100749.40;1675735;83;21249;-71
2021/05/26 06:04:37;;;;;;;3.43;2.50;;;;;;;20.01;64.11;100752.08;1683498;83;21663;-72
2021/05/26 06:07:04;;;;;;;3.20;2.20;;;;;;;20.07;64.00;100752.14;1682257;83;21035;-71
2021/05/26 06:09:32;;;;;;;3.33;2.20;;;;;;;20.14;63.50;100753.86;1656667;85;21039;-73
2021/05/26 06:12:00;;;;;;;3.43;2.47;;;;;;;20.23;63.32;100760.63;1678632;83;20988;-73
2021/05/26 06:14:26;;;;;;;4.07;2.50;;;;;;;20.24;63.08;100760.89;1673970;83;21055;-72
2021/05/26 06:16:54;;;;;;;6.23;2.30;;;;;;;20.28;62.82;100768.07;1746361;80;21116;-71
2021/05/26 06:19:20;;;;;;;2.97;2.23;;;;;;;20.34;62.56;100765.45;1737022;80;20974;-72
2021/05/26 06:21:49;;;;;;;3.40;2.30;;;;;;;20.37;62.49;100764.82;1741791;80;21017;-72
2021/05/26 06:24:16;;;;;;;3.53;2.03;;;;;;;20.40;62.32;100767.46;1736964;80;21041;-72
2021/05/26 06:26:43;;;;;;;2.67;2.10;;;;;;;20.49;61.95;100771.52;1749203;80;21046;-73
2021/05/26 06:29:10;;;;;;;4.10;2.40;;;;;;;20.55;61.10;100770.28;1739644;80;21069;-74
2021/05/26 06:31:38;;;;;;;4.57;2.30;;;;;;;20.59;60.96;100780.17;1731292;80;21088;-72
2021/05/26 06:34:05;;;;;;;4.40;2.50;;;;;;;20.64;60.34;100780.59;1729031;80;21125;-71
2021/05/26 06:36:36;;;;;;;3.47;2.10;;;;;;;20.67;60.28;100770.45;1737878;80;21129;-70
2021/05/26 06:39:03;;;;;;;3.40;2.20;;;;;;;20.76;60.13;100756.86;1719647;81;21053;-72
2021/05/26 06:41:30;;;;;;;3.10;2.07;;;;;;;20.96;59.50;100754.04;1740125;80;21117;-72
2021/05/26 06:43:57;;;;;;;4.23;2.20;;;;;;;21.06;58.97;100750.45;1738738;80;21097;-71
2021/05/26 06:46:24;;;;;;;4.77;2.20;;;;;;;21.06;58.43;100753.73;1744510;80;21624;-73
2021/05/26 06:48:50;;;;;;;5.17;1.93;;;;;;;21.17;58.18;100763.12;1739942;80;21085;-71
2021/05/26 06:51:17;;;;;;;4.07;2.13;;;;;;;21.38;58.23;100762.45;1737769;80;21077;-71
2021/05/26 06:53:46;;;;;;;3.50;2.20;;;;;;;21.57;58.09;100762.07;1734372;80;21056;-69
2021/05/26 06:56:14;;;;;;;3.50;2.07;;;;;;;21.68;57.60;100772.23;1738813;80;21706;-72
2021/05/26 06:58:41;;;;;;;2.90;1.90;;;;;;;21.75;56.72;100773.91;1739057;82;20981;-71
2021/05/26 07:01:08;;;;;;;3.20;2.07;;;;;;;21.77;56.49;100773.56;1738971;80;21104;-71
2021/05/26 07:03:35;;;;;;;4.00;1.97;;;;;;;21.86;56.21;100769.45;1741124;80;21168;-71
2021/05/26 07:06:02;;;;;;;2.90;1.90;;;;;;;22.01;56.13;100763.44;1740109;80;21224;-71
2021/05/26 07:08:31;;;;;;;3.70;1.73;;;;;;;22.16;55.63;100756.10;1742543;80;20986;-73
2021/05/26 07:10:57;;;;;;;3.07;1.83;;;;;;;22.31;54.56;100762.08;1727934;80;21057;-71
2021/05/26 07:13:24;;;;;;;3.70;1.80;;;;;;;22.44;54.09;100764.56;1724616;80;21634;-69
2021/05/26 07:15:52;;;;;;;2.50;1.70;;;;;;;22.61;54.03;100766.34;1734366;80;21066;-68
2021/05/26 07:18:20;;;;;;;3.17;1.70;;;;;;;22.65;52.64;100768.63;1736834;80;21148;-69
2021/05/26 07:20:48;;;;;;;2.80;1.60;;;;;;;22.55;52.60;100781.86;1741257;80;21065;-68
2021/05/26 07:23:16;;;;;;;2.57;1.60;;;;;;;22.39;52.14;100783.00;1740852;80;21211;-69
2021/05/26 07:25:43;;;;;;;3.00;1.70;;;;;;;22.25;52.93;100783.27;1735012;80;21099;-69
2021/05/26 07:28:10;;;;;;;2.80;1.70;;;;;;;22.32;53.18;100785.46;1744253;80;21642;-69
2021/05/26 07:30:37;;;;;;;2.80;1.77;;;;;;;22.38;52.64;100786.86;1740094;80;21600;-70
2021/05/26 07:33:04;;;;;;;2.93;1.70;;;;;;;22.32;52.63;100782.73;1727887;80;21128;-69
2021/05/26 07:35:30;;;;;;;4.67;1.77;;;;;;;22.37;53.30;100798.86;1735459;80;21130;-68
2021/05/26 07:37:57;;;;;;;2.93;1.80;;;;;;;22.46;53.10;100795.52;1742602;80;21116;-68
2021/05/26 07:40:24;;;;;;;4.23;1.67;;;;;;;22.51;53.11;100796.70;1723785;80;21687;-69
2021/05/26 07:42:52;;;;;;;3.40;1.83;;;;;;;22.51;53.07;100802.14;1734845;80;21089;-69
2021/05/26 07:45:21;;;;;;;3.27;1.90;;;;;;;22.42;53.05;100798.11;1738219;80;21116;-69
2021/05/26 07:47:47;;;;;;;4.70;1.80;;;;;;;22.35;52.70;100810.66;1740176;80;21051;-68
2021/05/26 07:50:14;;;;;;;3.03;1.93;;;;;;;22.17;52.94;100808.02;1738522;80;21133;-68
2021/05/26 07:52:43;;;;;;;3.70;1.90;;;;;;;21.93;53.25;100811.33;1735401;80;21099;-68
2021/05/26 07:55:10;;;;;;;2.80;1.97;;;;;;;21.69;54.46;100817.91;1732934;80;21278;-69
2021/05/26 07:57:37;;;;;;;3.23;2.13;;;;;;;21.56;55.18;100808.05;1737129;80;21678;-68
2021/05/26 08:00:06;;;;;;;4.10;2.07;;;;;;;21.56;55.51;100803.97;1740334;80;21099;-68
2021/05/26 08:02:35;;;;;;;3.70;2.50;;;;;;;21.49;55.93;100807.98;1735845;80;21059;-69
2021/05/26 08:05:01;;;;;;;3.53;2.27;;;;;;;21.49;56.13;100808.55;1738489;80;21202;-68
2021/05/26 08:07:29;;;;;;;4.43;2.57;;;;;;;21.37;56.42;100814.64;1741918;80;21564;-68
2021/05/26 08:09:57;;;;;;;4.90;2.50;;;;;;;21.18;57.23;100812.23;1736764;80;21518;-67
2021/05/26 08:12:23;;;;;;;4.13;2.30;;;;;;;21.08;57.71;100815.29;1737286;80;21056;-68
2021/05/26 08:14:50;;;;;;;4.73;2.70;;;;;;;21.02;58.23;100820.64;1735846;80;21093;-68
2021/05/26 08:17:19;;;;;;;5.10;2.33;;;;;;;20.84;58.74;100819.86;1736965;80;21073;-70
2021/05/26 08:19:46;;;;;;;4.77;2.47;;;;;;;20.69;59.40;100811.62;1734194;80;21117;-68
2021/05/26 08:22:12;;;;;;;6.63;3.60;;;;;;;20.51;59.92;100819.53;1738400;80;21132;-69
2021/05/26 08:24:40;;;;;;;5.30;2.63;;;;;;;20.42;60.40;100826.81;1733969;80;21128;-69
2021/05/26 08:27:07;;;;;;;5.20;2.40;;;;;;;20.44;60.63;100824.59;1735558;80;21635;-68
2021/05/26 08:29:39;;;;;;;5.47;3.07;;;;;;;20.44;60.77;100830.82;1712686;80;21751;-68
2021/05/26 08:32:06;;;;;;;5.00;2.63;;;;;;;20.37;60.92;100831.28;1731649;80;21633;-69
2021/05/26 08:34:32;;;;;;;6.73;3.23;;;;;;;20.27;61.30;100826.69;1739510;80;21058;-69
2021/05/26 08:36:59;;;;;;;5.23;2.93;;;;;;;20.18;61.75;100823.18;1740877;80;21185;-69
2021/05/26 08:39:25;;;;;;;5.00;3.30;;;;;;;20.14;62.13;100823.02;1737591;80;21160;-69
2021/05/26 08:41:53;;;;;;;6.07;3.60;;;;;;;20.14;62.32;100821.66;1740642;81;21054;-69
2021/05/26 08:44:20;;;;;;;4.10;2.70;;;;;;;20.13;62.35;100822.19;1743941;80;21740;-68
2021/05/26 08:46:54;;;;;;;6.40;3.47;;;;;;;20.11;62.46;100823.08;1742559;80;21678;-68
2021/05/26 08:49:23;;;;;;;6.50;3.03;;;;;;;20.08;62.61;100826.98;1696330;82;21140;-68
2021/05/26 08:51:49;;;;;;;5.67;2.80;;;;;;;20.06;62.69;100818.34;1713282;82;21113;-68
2021/05/26 08:54:17;;;;;;;7.00;2.97;;;;;;;20.08;62.74;100813.42;1729194;80;21671;-68
2021/05/26 08:56:44;;;;;;;7.10;2.50;;;;;;;20.12;62.67;100811.67;1743622;80;21117;-69
2021/05/26 08:59:17;;;;;;;5.93;2.90;;;;;;;20.18;62.45;100812.33;1738274;80;21062;-69
2021/05/26 09:01:53;;;;;;;3.43;2.30;;;;;;;20.23;62.13;100813.52;1734496;80;21134;-69
2021/05/26 09:04:31;;;;;;;4.37;2.70;;;;;;;20.32;61.87;100812.99;1736062;80;21148;-69
2021/05/26 09:07:15;;;;;;;5.03;2.63;;;;;;;20.39;61.84;100815.47;1734373;80;21076;-68
2021/05/26 09:09:59;;;;;;;4.37;2.30;;;;;;;20.49;61.40;100819.80;1736564;80;21498;-67
2021/05/26 09:12:40;;;;;;;5.00;2.70;;;;;;;20.55;61.18;100822.63;1728170;80;21726;-68
2021/05/26 09:15:17;;;;;;;5.13;3.13;;;;;;;20.58;61.15;100827.98;1737358;80;21132;-68
2021/05/26 09:17:57;;;;;;;4.63;2.60;;;;;;;20.55;60.89;100834.84;1741945;80;21097;-69
2021/05/26 09:20:29;;;;;;;4.57;2.60;;;;;;;20.49;60.61;100833.36;1736683;80;21151;-68
2021/05/26 09:23:08;;;;;;;4.33;2.60;;;;;;;20.34;61.29;100835.98;1734856;81;21148;-68
2021/05/26 09:25:48;;;;;;;6.35;2.77;;;;;;;20.27;61.73;100837.01;1732608;80;21587;-68
2021/05/26 09:28:34;;;;;;;4.50;2.97;;;;;;;20.19;61.82;100838.33;1738603;80;21087;-67
2021/05/26 09:31:06;;;;;;;4.17;2.60;;;;;;;20.11;62.09;100842.62;1736805;80;21219;-69
2021/05/26 09:33:45;;;;;;;3.83;2.77;;;;;;;20.07;62.49;100834.84;1740978;80;21068;-67
2021/05/26 09:36:25;;;;;;;7.33;3.63;;;;;;;20.06;62.57;100838.69;1739730;80;21741;-68
2021/05/26 09:38:59;;;;;;;6.60;2.80;;;;;;;19.98;62.50;100836.19;1733348;80;21129;-68
2021/05/26 09:41:28;;;;;;;4.17;2.77;;;;;;;19.91;62.64;100849.41;1733568;80;21079;-67
2021/05/26 09:44:02;;;;;;;11.40;4.07;;;;;;;19.86;62.78;100847.61;1711220;80;21153;-67
2021/05/26 09:46:37;;;;;;;8.67;3.70;;;;;;;19.80;62.91;100847.50;1740368;80;21101;-69
2021/05/26 09:49:17;;;;;;;6.53;3.30;;;;;;;19.80;63.07;100842.08;1738589;80;21126;-68
2021/05/26 09:51:55;;;;;;;5.87;3.37;;;;;;;19.84;63.22;100841.72;1739579;80;21084;-68
2021/05/26 09:54:26;;;;;;;4.43;3.30;;;;;;;19.90;63.18;100848.58;1738762;80;21072;-69
2021/05/26 09:57:06;;;;;;;5.20;3.60;;;;;;;19.95;62.92;100850.94;1723862;80;21144;-68
2021/05/26 09:59:35;;;;;;;5.93;3.30;;;;;;;19.98;62.77;100857.88;1730795;80;21057;-68
2021/05/26 10:02:06;;;;;;;5.50;3.27;;;;;;;19.98;62.82;100858.44;1739005;80;21120;-68
2021/05/26 10:04:31;;;;;;;6.20;3.20;;;;;;;19.97;62.95;100858.17;1742104;80;21069;-69
2021/05/26 10:07:16;;;;;;;5.33;3.20;;;;;;;19.94;63.09;100860.98;1743901;80;21358;-68
2021/05/26 10:09:45;;;;;;;5.03;3.30;;;;;;;19.90;63.09;100858.62;1728180;80;21077;-68
2021/05/26 10:12:15;;;;;;;5.00;2.90;;;;;;;19.80;63.08;100858.34;1721541;80;21575;-68
2021/05/26 10:14:44;;;;;;;4.50;2.90;;;;;;;19.68;63.31;100860.85;1721745;80;21085;-68
2021/05/26 10:17:19;;;;;;;7.13;3.73;;;;;;;19.56;63.82;100868.71;1738784;80;21599;-68
2021/05/26 10:19:43;;;;;;;7.60;3.90;;;;;;;19.41;64.28;100869.88;1743004;81;21068;-68
2021/05/26 10:22:10;;;;;;;6.23;3.40;;;;;;;19.37;64.73;100865.63;1737840;80;21105;-68
2021/05/26 10:24:38;;;;;;;7.43;3.67;;;;;;;19.35;64.89;100869.22;1712772;82;21125;-67
2021/05/26 10:27:06;;;;;;;7.07;3.53;;;;;;;19.35;65.08;100862.45;1733846;80;21120;-68
2021/05/26 10:29:38;;;;;;;5.43;3.40;;;;;;;19.38;65.30;100861.02;1703938;82;21113;-68
2021/05/26 10:32:16;;;;;;;5.47;3.50;;;;;;;19.40;65.39;100863.66;1730168;80;21070;-67
2021/05/26 10:34:51;;;;;;;5.10;3.50;;;;;;;19.45;65.44;100863.55;1736841;80;21061;-68
2021/05/26 10:37:32;;;;;;;5.13;3.50;;;;;;;19.52;65.37;100863.67;1733735;80;21109;-68
2021/05/26 10:40:02;;;;;;;7.27;3.40;;;;;;;19.57;65.43;100862.97;1748724;80;21089;-68
2021/05/26 10:42:34;;;;;;;4.63;3.50;;;;;;;19.57;65.41;100856.75;1737431;80;21631;-67
2021/05/26 10:45:06;;;;;;;6.27;3.83;;;;;;;19.55;65.58;100861.70;1739716;80;21077;-68
2021/05/26 10:47:46;;;;;;;5.60;3.63;;;;;;;19.54;65.52;100866.30;1729774;80;21154;-68
2021/05/26 10:50:25;;;;;;;4.73;3.60;;;;;;;19.59;65.43;100861.32;1743783;80;21061;-67
2021/05/26 10:53:05;;;;;;;7.20;3.97;;;;;;;19.60;65.39;100862.91;1728018;80;21116;-68
2021/05/26 10:55:41;;;;;;;6.20;3.60;;;;;;;19.58;65.42;100866.50;1736629;81;21070;-69
2021/05/26 10:58:24;;;;;;;5.87;3.97;;;;;;;19.54;65.44;100866.86;1759431;80;21066;-71
2021/05/26 11:01:03;;;;;;;6.60;4.00;;;;;;;19.53;65.44;100866.62;1738671;80;21073;-70
2021/05/26 11:03:44;;;;;;;6.87;4.03;;;;;;;19.52;65.44;100868.53;1742733;80;21103;-67
2021/05/26 11:06:16;;;;;;;4.60;3.07;;;;;;;19.42;65.71;100868.23;1740886;80;21218;-68
2021/05/26 11:08:48;;;;;;;6.47;3.60;;;;;;;19.36;66.09;100872.73;1738994;80;21096;-67
2021/05/26 11:11:38;;;;;;;5.55;3.42;;;;;;;19.28;66.62;100868.03;1729930;80;21100;-69
2021/05/26 11:14:18;;;;;;;6.13;3.80;;;;;;;19.35;66.79;100865.72;1728692;80;21128;-67
2021/05/26 11:16:56;;;;;;;7.22;3.50;;;;;;;19.47;66.89;100859.16;1720910;81;21136;-68
2021/05/26 11:19:25;;;;;;;8.50;4.67;;;;;;;19.60;66.62;100857.49;1731696;80;21690;-67
2021/05/26 11:22:06;;;;;;;7.03;4.77;;;;;;;19.64;66.62;100851.19;1755329;80;21484;-68
2021/05/26 11:24:35;;;;;;;8.90;5.20;;;;;;;19.72;66.41;100845.56;1730629;80;21096;-67
2021/05/26 11:27:20;;;;;;;8.25;5.40;;;;;;;19.80;66.23;100854.28;1741630;80;21674;-68
2021/05/26 11:29:53;;;;;;;7.20;5.43;;;;;;;19.84;66.20;100856.63;1744232;80;21172;-67
2021/05/26 11:32:22;;;;;;;7.63;5.30;;;;;;;19.84;65.86;100855.27;1741615;80;21046;-70
2021/05/26 11:34:51;;;;;;;9.20;4.60;;;;;;;19.83;65.90;100853.66;1740568;80;21118;-68